Sandy Lake Airport
CZSJ : now visible

Airfield :











YOU CAN JOIN US ON...

 
LOGIN :

Register | Disclaimer

   EN    FR    IT 

 









Legend :    VFR   Marginal VFR   IFR   Intensive IFR   Very Intensive IFR
Visi :
Ceiling :
>= 8 km
>= 3000ft
5 to 8 km
1000 to 3000 ft
1500m to 5 km
500 to 1000 ft
800 to 1500m
200 to 500 ft
< 800m
< 200 ft
Symbols :   Thunderstorms  Fog  Heavy snow  Heavy precipitations  Wind > 20 kt






- Airport Elevation : 951 ft
- IATA code : ZSJ


CZSJ - Sandy Lake

CURRENT METAR :
  • 232100Z AUTO 26007G15KT 200V290 8SM FEW071 31/16 A2964 RMK SLP036 DENSITY ALT 3400FT

EXPIRED METARs :
  • 232000Z AUTO 25009G18KT 190V300 9SM CLR 31/16 A2964 RMK SLP038 DENSITY ALT 3300FT
  • 231900Z AUTO 25006KT 210V290 6SM HZ FEW045 29/18 A2965 RMK SLP043 DENSITY ALT 3100FT
  • 231858Z AUTO 26008KT 180V290 6SM HZ FEW045 30/18 A2965 RMK SLP041 DENSITY ALT 3200FT

TAF TAF CZSJ
Valid from the 23 at 16:00 until the 23 at 22:00 UTC


231538Z 2316/2322 19008KT P6SM BKN050
TEMPO 2316/2320 5SM -SHRA FU BKN020
PROB30 2316/2320 VRB15G25KT 2SM +TSRA BR BKN020 BKN050CB
FM232000 25008KT P6SM SCT020 BKN060
TEMPO 2320/2322 BKN020 BKN060 RMK FCST BASED ON AUTO OBS. NXT FCST WILL BE ISSUED AT 240945Z
CZWG FIR / North America



MET'MAP, your aeronautical weather chart ! - Copyright ORBIFLY December 2007 - Disclaimer

ORBIFLY MET'MAP TEAM :

Programming & Development : Alexandra Zaïnal
Concept & original design : Baudouin d'Aumeries
Assistance for programming : Marc-Olivier Méhu
Technical & hardware support : Manuel Goepfert

Contact : metmap@orbifly.com




SOURCES & CREDITS :

   NOAA       Earth
Advisory